createdAt,value
2019-05-18T00:02:14.662Z,8.80
2019-05-18T00:04:42.892Z,8.70
2019-05-18T00:07:11.152Z,8.70
2019-05-18T00:09:39.390Z,8.60
2019-05-18T00:12:07.759Z,8.60
2019-05-18T00:14:36.028Z,8.60
2019-05-18T00:17:07.492Z,8.50
2019-05-18T00:19:34.236Z,8.50
2019-05-18T00:22:02.475Z,8.60
2019-05-18T00:24:31.636Z,8.60
2019-05-18T00:26:59.879Z,8.60
2019-05-18T00:29:28.101Z,8.60
2019-05-18T00:31:56.347Z,8.60
2019-05-18T00:34:24.567Z,8.60
2019-05-18T00:36:52.811Z,8.60
2019-05-18T00:39:21.144Z,8.60
2019-05-18T00:41:49.359Z,8.50
2019-05-18T00:44:17.603Z,8.40
2019-05-18T00:46:45.986Z,8.40
2019-05-18T00:49:14.227Z,8.30
2019-05-18T00:51:42.452Z,8.20
2019-05-18T00:54:10.698Z,8.20
2019-05-18T00:56:38.983Z,8.20
2019-05-18T00:59:07.235Z,8.20
2019-05-18T01:01:35.539Z,8.20
2019-05-18T01:04:03.792Z,8.10
2019-05-18T01:06:32.008Z,8.00
2019-05-18T01:09:00.234Z,8.00
2019-05-18T01:11:28.479Z,8.00
2019-05-18T01:13:56.700Z,8.00
2019-05-18T01:16:24.969Z,8.00
2019-05-18T01:18:53.320Z,8.00
2019-05-18T01:21:21.646Z,8.00
2019-05-18T01:23:49.867Z,8.10
2019-05-18T01:26:18.119Z,8.10
2019-05-18T01:28:46.335Z,8.10
2019-05-18T01:31:14.614Z,8.10
2019-05-18T01:33:42.823Z,8.10
2019-05-18T01:36:11.092Z,8.10
2019-05-18T01:38:39.453Z,8.10
2019-05-18T01:41:07.708Z,8.00
2019-05-18T01:43:36.778Z,8.00
2019-05-18T01:46:05.027Z,8.00
2019-05-18T01:48:33.313Z,8.00
2019-05-18T01:51:01.572Z,7.90
2019-05-18T01:53:29.844Z,7.90
2019-05-18T01:55:58.063Z,7.90
2019-05-18T01:58:26.309Z,7.90
2019-05-18T02:00:54.492Z,7.80
2019-05-18T02:03:25.893Z,7.70
2019-05-18T02:05:52.822Z,7.70
2019-05-18T02:08:21.135Z,7.70
2019-05-18T02:10:49.361Z,7.70
2019-05-18T02:13:17.626Z,7.70
2019-05-18T02:15:45.843Z,7.70
2019-05-18T02:18:26.925Z,7.80
2019-05-18T02:20:44.023Z,7.80
2019-05-18T02:23:12.331Z,7.70
2019-05-18T02:25:40.590Z,7.60
2019-05-18T02:28:08.791Z,7.70
2019-05-18T02:30:37.130Z,7.70
2019-05-18T02:33:05.425Z,7.80
2019-05-18T02:35:33.653Z,7.80
2019-05-18T02:38:20.922Z,7.80
2019-05-18T02:40:49.248Z,7.70
2019-05-18T02:43:17.439Z,7.60
2019-05-18T02:45:45.672Z,7.60
2019-05-18T02:48:13.954Z,7.50
2019-05-18T02:50:42.228Z,7.40
2019-05-18T02:53:10.506Z,7.40
2019-05-18T02:55:39.789Z,7.40
2019-05-18T02:58:08.000Z,7.30
2019-05-18T03:00:36.232Z,7.30
2019-05-18T03:03:04.432Z,7.30
2019-05-18T03:05:32.653Z,7.30
2019-05-18T03:08:00.878Z,7.30
2019-05-18T03:10:29.080Z,7.30
2019-05-18T03:12:57.392Z,7.30
2019-05-18T03:15:25.600Z,7.30
2019-05-18T03:17:53.848Z,7.30
2019-05-18T03:20:22.067Z,7.30
2019-05-18T03:22:50.299Z,7.30
2019-05-18T03:25:18.497Z,7.30
2019-05-18T03:27:46.731Z,7.30
2019-05-18T03:30:15.062Z,7.30
2019-05-18T03:32:43.361Z,7.40
2019-05-18T03:35:11.649Z,7.40
2019-05-18T03:37:39.896Z,7.40
2019-05-18T03:40:08.301Z,7.40
2019-05-18T03:42:36.496Z,7.40
2019-05-18T03:45:05.155Z,7.40
2019-05-18T03:47:33.468Z,7.40
2019-05-18T03:50:01.715Z,7.50
2019-05-18T03:52:30.109Z,7.50
2019-05-18T03:54:58.321Z,7.50
2019-05-18T03:57:26.641Z,7.40
2019-05-18T03:59:54.920Z,7.40
2019-05-18T04:02:23.239Z,7.50
2019-05-18T04:04:51.511Z,7.70
2019-05-18T04:07:19.780Z,7.80
2019-05-18T04:09:48.003Z,7.90
2019-05-18T04:12:16.348Z,8.00
2019-05-18T04:14:44.560Z,8.10
2019-05-18T04:17:12.791Z,8.30
2019-05-18T04:19:46.861Z,8.30
2019-05-18T04:22:10.947Z,8.30
2019-05-18T04:24:39.161Z,8.60
2019-05-18T04:27:07.399Z,9.20
2019-05-18T04:29:35.687Z,9.80
2019-05-18T04:32:03.900Z,10.60
2019-05-18T04:34:32.141Z,11.20
2019-05-18T04:37:00.362Z,12.10
2019-05-18T04:39:28.601Z,12.80
2019-05-18T04:41:56.931Z,13.20
2019-05-18T04:44:25.185Z,12.70
2019-05-18T04:46:53.495Z,13.00
2019-05-18T04:49:21.745Z,12.70
2019-05-18T04:51:49.985Z,12.40
2019-05-18T04:54:18.227Z,12.00
2019-05-18T04:56:46.516Z,11.80
2019-05-18T04:59:14.721Z,11.60
2019-05-18T05:01:43.012Z,11.50
2019-05-18T05:04:11.292Z,11.50
2019-05-18T05:06:39.542Z,11.50
2019-05-18T05:09:08.363Z,11.40
2019-05-18T05:11:36.603Z,11.50
2019-05-18T05:14:04.891Z,11.30
2019-05-18T05:16:33.144Z,11.40
2019-05-18T05:19:01.422Z,11.10
2019-05-18T05:21:29.938Z,11.00
2019-05-18T05:23:58.179Z,10.80
2019-05-18T05:26:26.436Z,10.70
2019-05-18T05:28:54.703Z,10.70
2019-05-18T05:31:22.942Z,10.70
2019-05-18T05:33:51.276Z,10.80
2019-05-18T05:36:19.511Z,10.70
2019-05-18T05:38:47.799Z,10.70
2019-05-18T05:41:16.842Z,10.80
2019-05-18T05:43:45.511Z,10.90
2019-05-18T05:46:13.771Z,11.10
2019-05-18T05:48:42.055Z,11.30
2019-05-18T05:51:10.334Z,11.50
2019-05-18T05:53:38.645Z,11.80
2019-05-18T05:56:07.229Z,12.10
2019-05-18T05:58:35.501Z,12.30
2019-05-18T06:01:03.754Z,12.30
2019-05-18T06:03:31.988Z,12.50
2019-05-18T06:06:00.232Z,12.50
2019-05-18T06:08:28.594Z,12.50
2019-05-18T06:10:56.835Z,12.50
2019-05-18T06:13:25.177Z,12.60
2019-05-18T06:15:53.399Z,13.10
2019-05-18T06:18:21.746Z,13.30
2019-05-18T06:20:51.786Z,13.60
2019-05-18T06:23:19.959Z,13.70
2019-05-18T06:25:48.245Z,13.80
2019-05-18T06:28:16.504Z,14.00
2019-05-18T06:30:44.782Z,14.30
2019-05-18T06:33:13.034Z,14.60
2019-05-18T06:35:41.350Z,14.80
2019-05-18T06:38:09.641Z,15.10
2019-05-18T06:40:37.906Z,15.20
2019-05-18T06:43:05.947Z,15.30
2019-05-18T06:45:34.192Z,15.50
2019-05-18T06:48:02.476Z,15.70
2019-05-18T06:50:31.405Z,15.90
2019-05-18T06:52:59.853Z,16.20
2019-05-18T06:55:28.082Z,16.40
2019-05-18T06:57:57.637Z,16.20
2019-05-18T07:00:26.878Z,16.40
2019-05-18T07:02:55.179Z,16.60
2019-05-18T07:05:23.523Z,16.70
2019-05-18T07:07:52.193Z,16.80
2019-05-18T07:10:20.419Z,16.50
2019-05-18T07:12:48.648Z,16.60
2019-05-18T07:15:17.022Z,16.60
2019-05-18T07:17:45.370Z,16.60
2019-05-18T07:20:13.710Z,16.60
2019-05-18T07:22:42.080Z,16.70
2019-05-18T07:25:11.465Z,16.60
2019-05-18T07:27:39.802Z,16.70
2019-05-18T07:30:08.167Z,16.80
2019-05-18T07:32:36.421Z,16.90
2019-05-18T07:35:05.237Z,16.90
2019-05-18T07:37:33.646Z,16.90
2019-05-18T07:40:02.301Z,17.10
2019-05-18T07:42:30.644Z,17.20
2019-05-18T07:44:59.019Z,17.30
2019-05-18T07:47:27.307Z,17.50
2019-05-18T07:49:55.601Z,17.60
2019-05-18T07:52:23.949Z,17.70
2019-05-18T07:54:53.494Z,17.70
2019-05-18T07:57:21.736Z,17.80
2019-05-18T07:59:50.111Z,17.80
2019-05-18T08:02:18.347Z,18.00
2019-05-18T08:04:46.652Z,18.20
2019-05-18T08:07:14.935Z,18.30
2019-05-18T08:09:43.244Z,18.30
2019-05-18T08:12:11.548Z,18.30
2019-05-18T08:14:39.864Z,18.50
2019-05-18T08:17:08.164Z,18.50
2019-05-18T08:19:36.395Z,18.60
2019-05-18T08:22:04.673Z,18.60
2019-05-18T08:24:32.990Z,18.60
2019-05-18T08:27:02.272Z,18.70
2019-05-18T08:29:31.039Z,18.80
2019-05-18T08:31:59.332Z,18.90
2019-05-18T08:34:29.066Z,19.00
2019-05-18T08:36:57.441Z,19.00
2019-05-18T08:39:25.699Z,19.10
2019-05-18T08:41:54.058Z,19.10
2019-05-18T08:44:22.289Z,19.20
2019-05-18T08:46:50.584Z,19.30
2019-05-18T08:49:18.806Z,19.30
2019-05-18T08:51:47.146Z,19.30
2019-05-18T08:54:15.388Z,19.40
2019-05-18T08:56:43.683Z,19.50
2019-05-18T08:59:11.929Z,19.50
2019-05-18T09:01:40.190Z,19.60
2019-05-18T09:04:08.476Z,19.70
2019-05-18T09:06:36.854Z,19.80
2019-05-18T09:09:06.026Z,19.70
2019-05-18T09:11:34.319Z,19.60
2019-05-18T09:14:02.628Z,19.80
2019-05-18T09:16:30.945Z,19.90
2019-05-18T09:18:59.267Z,19.90
2019-05-18T09:21:27.544Z,19.80
2019-05-18T09:23:55.911Z,19.90
2019-05-18T09:26:24.783Z,19.90
2019-05-18T09:28:53.090Z,20.00
2019-05-18T09:31:21.393Z,20.20
2019-05-18T09:33:49.601Z,20.40
2019-05-18T09:36:18.355Z,20.40
2019-05-18T09:38:48.163Z,20.40
2019-05-18T09:41:16.431Z,20.60
2019-05-18T09:43:44.728Z,20.70
2019-05-18T09:46:13.014Z,20.80
2019-05-18T09:48:41.342Z,20.70
2019-05-18T09:51:09.614Z,20.80
2019-05-18T09:53:50.676Z,20.80
2019-05-18T09:56:10.900Z,20.90
2019-05-18T09:58:39.168Z,20.90
2019-05-18T10:01:07.507Z,20.90
2019-05-18T10:03:35.797Z,21.00
2019-05-18T10:06:04.210Z,21.10
2019-05-18T10:08:32.511Z,21.20
2019-05-18T10:11:00.900Z,21.20
2019-05-18T10:13:30.147Z,21.30
2019-05-18T10:15:58.492Z,21.20
2019-05-18T10:18:26.850Z,21.30
2019-05-18T10:20:56.496Z,21.40
2019-05-18T10:23:25.152Z,21.40
2019-05-18T10:25:53.424Z,21.30
2019-05-18T10:28:22.056Z,21.20
2019-05-18T10:30:51.503Z,21.20
2019-05-18T10:33:19.864Z,21.20
2019-05-18T10:35:48.227Z,21.40
2019-05-18T10:38:16.545Z,21.50
2019-05-18T10:40:46.636Z,21.40
2019-05-18T10:43:15.061Z,21.30
2019-05-18T10:45:45.730Z,21.00
2019-05-18T10:48:14.238Z,20.70
2019-05-18T10:50:43.660Z,20.10
2019-05-18T10:53:11.952Z,20.10
2019-05-18T10:55:40.377Z,20.30
2019-05-18T10:58:09.671Z,20.50
2019-05-18T11:00:40.274Z,20.70
2019-05-18T11:03:08.609Z,21.00
2019-05-18T11:05:36.940Z,21.20
2019-05-18T11:08:05.217Z,21.10
2019-05-18T11:10:33.558Z,20.90
2019-05-18T11:13:01.855Z,20.80
2019-05-18T11:15:30.142Z,20.80
2019-05-18T11:17:58.495Z,20.80
2019-05-18T11:20:26.791Z,21.00
2019-05-18T11:22:55.083Z,21.10
2019-05-18T11:25:23.364Z,21.20
2019-05-18T11:27:51.647Z,21.10
2019-05-18T11:30:20.105Z,21.20
2019-05-18T11:32:48.440Z,21.10
2019-05-18T11:35:17.268Z,21.20
2019-05-18T11:37:45.633Z,21.20
2019-05-18T11:40:14.011Z,21.50
2019-05-18T11:42:42.296Z,21.50
2019-05-18T11:45:11.291Z,21.80
2019-05-18T11:47:39.698Z,22.00
2019-05-18T11:50:08.380Z,22.10
2019-05-18T11:52:36.756Z,22.10
2019-05-18T11:55:05.352Z,22.10
2019-05-18T11:57:33.676Z,22.00
2019-05-18T12:00:02.259Z,21.70
2019-05-18T12:02:30.951Z,21.60
2019-05-18T12:04:59.228Z,21.60
2019-05-18T12:07:27.597Z,21.70
2019-05-18T12:09:55.842Z,21.90
2019-05-18T12:12:24.136Z,21.90
2019-05-18T12:14:52.431Z,21.80
2019-05-18T12:17:20.718Z,21.80
2019-05-18T12:19:49.038Z,21.70
2019-05-18T12:22:17.320Z,21.80
2019-05-18T12:24:45.588Z,21.90
2019-05-18T12:27:14.254Z,22.00
2019-05-18T12:29:42.588Z,22.10
2019-05-18T12:32:10.831Z,22.20
2019-05-18T12:34:39.087Z,22.30
2019-05-18T12:37:08.931Z,22.30
2019-05-18T12:39:37.197Z,22.20
2019-05-18T12:42:07.626Z,22.40
2019-05-18T12:44:36.205Z,22.70
2019-05-18T12:47:04.580Z,22.70
2019-05-18T12:49:32.925Z,22.80
2019-05-18T12:52:01.263Z,22.90
2019-05-18T12:54:45.299Z,23.20
2019-05-18T12:56:59.765Z,23.40
2019-05-18T12:59:28.070Z,23.60
2019-05-18T13:01:56.404Z,23.60
2019-05-18T13:04:24.691Z,23.30
2019-05-18T13:06:52.946Z,23.00
2019-05-18T13:09:23.712Z,22.90
2019-05-18T13:11:51.309Z,22.90
2019-05-18T13:14:19.717Z,22.80
2019-05-18T13:16:48.056Z,22.80
2019-05-18T13:19:16.350Z,22.90
2019-05-18T13:21:46.178Z,22.80
2019-05-18T13:24:14.518Z,22.80
2019-05-18T13:26:42.787Z,22.50
2019-05-18T13:29:11.274Z,22.40
2019-05-18T13:31:39.620Z,22.40
2019-05-18T13:34:07.913Z,22.20
2019-05-18T13:36:36.286Z,22.40
2019-05-18T13:39:05.163Z,22.50
2019-05-18T13:41:33.508Z,22.50
2019-05-18T13:44:01.816Z,22.60
2019-05-18T13:46:30.125Z,22.50
2019-05-18T13:48:58.401Z,22.60
2019-05-18T13:51:26.724Z,22.60
2019-05-18T13:53:55.026Z,22.80
2019-05-18T13:56:23.293Z,22.80
2019-05-18T13:58:51.614Z,22.90
2019-05-18T14:01:19.925Z,23.00
2019-05-18T14:03:48.286Z,23.20
2019-05-18T14:06:16.635Z,23.10
2019-05-18T14:08:45.041Z,23.10
2019-05-18T14:11:13.379Z,23.20
2019-05-18T14:13:41.799Z,23.40
2019-05-18T14:16:10.131Z,23.30
2019-05-18T14:18:38.422Z,22.90
2019-05-18T14:21:06.707Z,22.80
2019-05-18T14:23:35.063Z,22.60
2019-05-18T14:26:03.416Z,22.40
2019-05-18T14:28:31.767Z,22.30
2019-05-18T14:31:00.081Z,22.30
2019-05-18T14:33:29.190Z,22.20
2019-05-18T14:35:57.661Z,22.20
2019-05-18T14:38:25.959Z,22.10
2019-05-18T14:40:54.319Z,22.00
2019-05-18T14:43:22.692Z,22.00
2019-05-18T14:45:51.285Z,21.80
2019-05-18T14:48:19.605Z,21.70
2019-05-18T14:50:47.971Z,21.70
2019-05-18T14:53:16.235Z,21.70
2019-05-18T14:55:44.500Z,21.70
2019-05-18T14:58:12.786Z,21.70
2019-05-18T15:00:41.140Z,21.80
2019-05-18T15:03:09.442Z,21.90
2019-05-18T15:05:38.766Z,21.90
2019-05-18T15:08:07.298Z,21.80
2019-05-18T15:10:35.612Z,21.80
2019-05-18T15:13:04.047Z,21.80
2019-05-18T15:15:32.322Z,21.80
2019-05-18T15:18:00.703Z,21.70
2019-05-18T15:20:29.038Z,21.70
2019-05-18T15:22:57.643Z,21.70
2019-05-18T15:25:26.079Z,21.80
2019-05-18T15:27:54.372Z,21.80
2019-05-18T15:30:22.665Z,22.00
2019-05-18T15:32:50.925Z,22.00
2019-05-18T15:35:19.257Z,22.00
2019-05-18T15:37:47.598Z,22.00
2019-05-18T15:40:16.027Z,22.20
2019-05-18T15:42:44.332Z,22.20
2019-05-18T15:45:13.536Z,22.10
2019-05-18T15:47:41.997Z,21.80
2019-05-18T15:50:10.796Z,21.80
2019-05-18T15:52:40.153Z,21.80
2019-05-18T15:55:09.120Z,21.70
2019-05-18T15:57:38.724Z,21.70
2019-05-18T16:00:07.891Z,21.90
2019-05-18T16:02:36.252Z,21.90
2019-05-18T16:05:05.458Z,22.00
2019-05-18T16:07:33.762Z,21.90
2019-05-18T16:10:02.104Z,21.90
2019-05-18T16:12:30.365Z,21.80
2019-05-18T16:14:59.126Z,21.80
2019-05-18T16:17:38.956Z,21.60
2019-05-18T16:19:57.408Z,21.70
2019-05-18T16:22:25.759Z,21.70
2019-05-18T16:24:54.400Z,21.70
2019-05-18T16:27:22.765Z,21.70
2019-05-18T16:29:51.173Z,21.70
2019-05-18T16:32:19.530Z,21.60
2019-05-18T16:34:47.886Z,21.30
2019-05-18T16:37:16.234Z,21.40
2019-05-18T16:39:45.332Z,21.20
2019-05-18T16:42:13.787Z,21.00
2019-05-18T16:44:42.099Z,20.70
2019-05-18T16:47:10.455Z,20.50
2019-05-18T16:49:38.744Z,20.20
2019-05-18T16:52:07.099Z,20.00
2019-05-18T16:54:35.392Z,20.00
2019-05-18T16:57:03.676Z,19.90
2019-05-18T16:59:32.052Z,19.90
2019-05-18T17:02:00.406Z,20.00
2019-05-18T17:04:28.851Z,19.90
2019-05-18T17:06:57.665Z,19.90
2019-05-18T17:09:26.098Z,19.90
2019-05-18T17:11:54.619Z,19.70
2019-05-18T17:14:23.080Z,19.70
2019-05-18T17:16:51.372Z,19.80
2019-05-18T17:19:19.647Z,19.90
2019-05-18T17:21:48.060Z,19.90
2019-05-18T17:24:16.356Z,19.90
2019-05-18T17:26:53.032Z,20.00
2019-05-18T17:29:14.775Z,20.00
2019-05-18T17:31:43.111Z,20.00
2019-05-18T17:34:11.517Z,20.00
2019-05-18T17:36:39.904Z,19.80
2019-05-18T17:39:08.289Z,19.80
2019-05-18T17:41:36.593Z,19.80
2019-05-18T17:44:04.955Z,19.90
2019-05-18T17:46:33.392Z,19.80
2019-05-18T17:49:01.722Z,19.80
2019-05-18T17:51:31.090Z,19.80
2019-05-18T17:54:00.305Z,19.70
2019-05-18T17:56:28.665Z,19.50
2019-05-18T17:58:57.024Z,19.50
2019-05-18T18:01:25.321Z,19.40
2019-05-18T18:03:55.628Z,19.30
2019-05-18T18:06:23.957Z,19.30
2019-05-18T18:08:52.321Z,19.00
2019-05-18T18:11:20.787Z,19.00
2019-05-18T18:13:49.274Z,18.90
2019-05-18T18:16:17.680Z,18.80
2019-05-18T18:18:46.476Z,18.80
2019-05-18T18:21:14.930Z,18.80
2019-05-18T18:23:43.270Z,18.70
2019-05-18T18:26:11.903Z,18.80
2019-05-18T18:28:40.316Z,18.70
2019-05-18T18:31:09.263Z,18.80
2019-05-18T18:33:37.694Z,18.90
2019-05-18T18:36:05.979Z,18.90
2019-05-18T18:38:34.623Z,18.90
2019-05-18T18:41:02.935Z,18.90
2019-05-18T18:43:31.301Z,18.90
2019-05-18T18:45:59.752Z,18.90
2019-05-18T18:48:28.603Z,18.80
2019-05-18T18:50:58.237Z,18.60
2019-05-18T18:53:26.979Z,18.40
2019-05-18T18:55:55.917Z,18.20
2019-05-18T18:58:24.405Z,18.10
2019-05-18T19:00:52.808Z,17.90
2019-05-18T19:03:21.197Z,17.80
2019-05-18T19:05:49.741Z,17.60
2019-05-18T19:08:18.089Z,17.50
2019-05-18T19:10:46.467Z,17.50
2019-05-18T19:13:14.817Z,17.40
2019-05-18T19:15:43.466Z,17.30
2019-05-18T19:18:11.934Z,17.10
2019-05-18T19:20:40.942Z,17.00
2019-05-18T19:23:09.464Z,16.90
2019-05-18T19:25:37.788Z,16.80
2019-05-18T19:28:06.304Z,16.70
2019-05-18T19:30:34.934Z,16.60
2019-05-18T19:33:03.924Z,16.50
2019-05-18T19:35:32.872Z,16.40
2019-05-18T19:38:01.576Z,16.30
2019-05-18T19:40:31.165Z,16.20
2019-05-18T19:42:59.807Z,16.20
2019-05-18T19:45:29.207Z,16.10
2019-05-18T19:47:58.822Z,16.10
2019-05-18T19:50:27.779Z,15.90
2019-05-18T19:52:56.827Z,15.70
2019-05-18T19:55:25.158Z,15.60
2019-05-18T19:58:07.804Z,15.60
2019-05-18T20:00:26.601Z,15.60
2019-05-18T20:02:57.711Z,15.50
2019-05-18T20:05:26.250Z,15.50
2019-05-18T20:07:55.816Z,15.40
2019-05-18T20:10:26.186Z,15.30
2019-05-18T20:12:55.807Z,15.30
2019-05-18T20:15:24.903Z,15.20
2019-05-18T20:17:53.240Z,15.20
2019-05-18T20:20:21.780Z,15.20
2019-05-18T20:22:51.867Z,15.10
2019-05-18T20:25:21.625Z,15.00
2019-05-18T20:27:52.910Z,14.90
2019-05-18T20:30:21.649Z,14.80
2019-05-18T20:32:50.294Z,14.70
2019-05-18T20:35:18.902Z,14.60
2019-05-18T20:37:48.280Z,14.50
2019-05-18T20:40:16.678Z,14.40
2019-05-18T20:42:45.135Z,14.30
2019-05-18T20:45:13.665Z,14.30
2019-05-18T20:47:42.181Z,14.20
2019-05-18T20:50:12.038Z,14.20
2019-05-18T20:52:40.492Z,14.20
2019-05-18T20:55:08.820Z,14.10
2019-05-18T20:57:37.252Z,14.10
2019-05-18T21:00:05.823Z,13.90
2019-05-18T21:02:34.167Z,13.90
2019-05-18T21:05:02.475Z,13.80
2019-05-18T21:07:30.791Z,13.70
2019-05-18T21:09:59.149Z,13.60
2019-05-18T21:12:27.641Z,13.50
2019-05-18T21:14:56.091Z,13.50
2019-05-18T21:17:24.450Z,13.50
2019-05-18T21:19:53.239Z,13.40
2019-05-18T21:22:21.592Z,13.30
2019-05-18T21:24:49.964Z,13.30
2019-05-18T21:27:18.273Z,13.40
2019-05-18T21:29:47.464Z,13.40
2019-05-18T21:32:15.881Z,13.30
2019-05-18T21:34:44.263Z,13.30
2019-05-18T21:37:12.727Z,13.20
2019-05-18T21:39:41.106Z,13.10
2019-05-18T21:42:09.823Z,13.10
2019-05-18T21:44:38.563Z,13.10
2019-05-18T21:47:06.957Z,13.10
2019-05-18T21:49:37.513Z,13.10
2019-05-18T21:52:05.944Z,13.00
2019-05-18T21:54:34.245Z,12.90
2019-05-18T21:57:02.581Z,12.80
2019-05-18T21:59:30.907Z,12.80
2019-05-18T22:01:59.341Z,12.80
2019-05-18T22:04:27.918Z,12.70
2019-05-18T22:06:56.254Z,12.70
2019-05-18T22:09:24.587Z,12.70
2019-05-18T22:11:52.940Z,12.60
2019-05-18T22:14:21.513Z,12.50
2019-05-18T22:16:49.950Z,12.50
2019-05-18T22:19:18.230Z,12.40
2019-05-18T22:21:46.560Z,12.40
2019-05-18T22:24:14.852Z,12.30
2019-05-18T22:26:43.256Z,12.40
2019-05-18T22:29:12.524Z,12.30
2019-05-18T22:31:40.971Z,12.20
2019-05-18T22:34:09.352Z,12.20
2019-05-18T22:36:37.742Z,12.20
2019-05-18T22:39:06.667Z,12.30
2019-05-18T22:41:35.343Z,12.30
2019-05-18T22:44:03.816Z,12.40
2019-05-18T22:46:32.202Z,12.30
2019-05-18T22:49:00.534Z,12.20
2019-05-18T22:51:28.842Z,12.20
2019-05-18T22:53:57.259Z,12.10
2019-05-18T22:56:25.669Z,12.00
2019-05-18T22:58:53.977Z,12.00
2019-05-18T23:01:22.558Z,12.00
2019-05-18T23:03:51.730Z,11.90
2019-05-18T23:06:20.365Z,11.80
2019-05-18T23:08:48.696Z,11.80
2019-05-18T23:11:17.102Z,11.80
2019-05-18T23:13:45.442Z,11.80
2019-05-18T23:16:14.320Z,11.80
2019-05-18T23:18:55.976Z,11.80
2019-05-18T23:21:12.615Z,11.80
2019-05-18T23:23:40.855Z,11.80
2019-05-18T23:26:11.492Z,11.80
2019-05-18T23:28:39.104Z,11.70
2019-05-18T23:31:07.373Z,11.60
2019-05-18T23:33:35.658Z,11.50
2019-05-18T23:36:04.031Z,11.50
2019-05-18T23:38:32.305Z,11.50
2019-05-18T23:41:00.574Z,11.50
2019-05-18T23:43:28.825Z,11.40
2019-05-18T23:45:57.180Z,11.40
2019-05-18T23:48:25.561Z,11.40
2019-05-18T23:50:54.867Z,11.30
2019-05-18T23:53:23.100Z,11.20
2019-05-18T23:55:51.387Z,11.20
2019-05-18T23:58:19.707Z,11.10
